sensor_id;sensor_type;location;lat;lon;timestamp;temperature;humidity
36384;DHT22;22418;51.210;6.976;2023-05-10T00:00:42;15.90;99.90
36384;DHT22;22418;51.210;6.976;2023-05-10T00:03:13;15.90;99.90
36384;DHT22;22418;51.210;6.976;2023-05-10T00:05:43;15.90;99.90
36384;DHT22;22418;51.210;6.976;2023-05-10T00:08:14;15.90;99.90
36384;DHT22;22418;51.210;6.976;2023-05-10T00:10:44;15.80;99.90
36384;DHT22;22418;51.210;6.976;2023-05-10T00:13:15;15.80;99.90
36384;DHT22;22418;51.210;6.976;2023-05-10T00:15:45;15.80;99.90
36384;DHT22;22418;51.210;6.976;2023-05-10T00:18:16;15.80;99.90
36384;DHT22;22418;51.210;6.976;2023-05-10T00:20:46;15.80;99.90
36384;DHT22;22418;51.210;6.976;2023-05-10T00:23:17;15.80;99.90
36384;DHT22;22418;51.210;6.976;2023-05-10T00:25:47;15.80;99.90
36384;DHT22;22418;51.210;6.976;2023-05-10T00:28:18;15.90;99.90
36384;DHT22;22418;51.210;6.976;2023-05-10T00:30:48;15.90;99.90
36384;DHT22;22418;51.210;6.976;2023-05-10T00:33:18;15.80;99.90
36384;DHT22;22418;51.210;6.976;2023-05-10T00:35:49;15.80;99.90
36384;DHT22;22418;51.210;6.976;2023-05-10T00:38:19;15.80;99.90
36384;DHT22;22418;51.210;6.976;2023-05-10T00:40:50;15.80;99.90
36384;DHT22;22418;51.210;6.976;2023-05-10T00:43:21;15.80;99.90
36384;DHT22;22418;51.210;6.976;2023-05-10T00:45:51;15.80;99.90
36384;DHT22;22418;51.210;6.976;2023-05-10T00:48:22;15.80;99.90
36384;DHT22;22418;51.210;6.976;2023-05-10T00:50:53;15.80;99.90
36384;DHT22;22418;51.210;6.976;2023-05-10T00:53:24;15.80;99.90
36384;DHT22;22418;51.210;6.976;2023-05-10T00:55:54;15.80;99.90
36384;DHT22;22418;51.210;6.976;2023-05-10T00:58:25;15.80;99.90
36384;DHT22;22418;51.210;6.976;2023-05-10T01:00:58;15.80;99.90
36384;DHT22;22418;51.210;6.976;2023-05-10T01:03:29;15.80;99.90
36384;DHT22;22418;51.210;6.976;2023-05-10T01:06:00;15.80;99.90
36384;DHT22;22418;51.210;6.976;2023-05-10T01:08:30;15.80;99.90
36384;DHT22;22418;51.210;6.976;2023-05-10T01:11:01;15.80;99.90
36384;DHT22;22418;51.210;6.976;2023-05-10T01:13:33;15.80;99.90
36384;DHT22;22418;51.210;6.976;2023-05-10T01:16:04;15.80;99.90
36384;DHT22;22418;51.210;6.976;2023-05-10T01:18:36;15.80;99.90
36384;DHT22;22418;51.210;6.976;2023-05-10T01:21:15;15.90;99.90
36384;DHT22;22418;51.210;6.976;2023-05-10T01:24:00;15.90;99.90
36384;DHT22;22418;51.210;6.976;2023-05-10T01:34:46;15.80;99.90
36384;DHT22;22418;51.210;6.976;2023-05-10T01:37:24;15.70;99.90
36384;DHT22;22418;51.210;6.976;2023-05-10T01:39:58;15.70;99.90
36384;DHT22;22418;51.210;6.976;2023-05-10T01:42:32;15.70;99.90
36384;DHT22;22418;51.210;6.976;2023-05-10T01:47:41;15.70;99.90
36384;DHT22;22418;51.210;6.976;2023-05-10T01:50:15;15.70;99.90
36384;DHT22;22418;51.210;6.976;2023-05-10T01:52:51;15.70;99.90
36384;DHT22;22418;51.210;6.976;2023-05-10T01:55:23;15.70;99.90
36384;DHT22;22418;51.210;6.976;2023-05-10T01:58:04;15.70;99.90
36384;DHT22;22418;51.210;6.976;2023-05-10T02:00:35;15.60;99.90
36384;DHT22;22418;51.210;6.976;2023-05-10T02:03:10;15.70;99.90
36384;DHT22;22418;51.210;6.976;2023-05-10T02:05:41;15.60;99.90
36384;DHT22;22418;51.210;6.976;2023-05-10T02:08:14;15.60;99.90
36384;DHT22;22418;51.210;6.976;2023-05-10T02:10:45;15.60;99.90
36384;DHT22;22418;51.210;6.976;2023-05-10T02:13:17;15.60;99.90
36384;DHT22;22418;51.210;6.976;2023-05-10T02:15:48;15.60;99.90
36384;DHT22;22418;51.210;6.976;2023-05-10T02:18:19;15.60;99.90
36384;DHT22;22418;51.210;6.976;2023-05-10T02:20:49;15.60;99.90
36384;DHT22;22418;51.210;6.976;2023-05-10T02:23:20;15.60;99.90
36384;DHT22;22418;51.210;6.976;2023-05-10T02:25:51;15.60;99.90
36384;DHT22;22418;51.210;6.976;2023-05-10T02:28:23;15.60;99.90
36384;DHT22;22418;51.210;6.976;2023-05-10T02:30:53;15.60;99.90
36384;DHT22;22418;51.210;6.976;2023-05-10T02:33:24;15.60;99.90
36384;DHT22;22418;51.210;6.976;2023-05-10T02:35:55;15.50;99.90
36384;DHT22;22418;51.210;6.976;2023-05-10T02:38:26;15.60;99.90
36384;DHT22;22418;51.210;6.976;2023-05-10T02:40:57;15.60;99.90
36384;DHT22;22418;51.210;6.976;2023-05-10T02:43:30;15.50;99.90
36384;DHT22;22418;51.210;6.976;2023-05-10T02:46:02;15.60;99.90
36384;DHT22;22418;51.210;6.976;2023-05-10T02:48:33;15.50;99.90
36384;DHT22;22418;51.210;6.976;2023-05-10T02:51:05;15.50;99.90
36384;DHT22;22418;51.210;6.976;2023-05-10T02:53:36;15.50;99.90
36384;DHT22;22418;51.210;6.976;2023-05-10T02:56:11;15.50;99.90
36384;DHT22;22418;51.210;6.976;2023-05-10T02:58:43;15.50;99.90
36384;DHT22;22418;51.210;6.976;2023-05-10T03:01:14;15.50;99.90
36384;DHT22;22418;51.210;6.976;2023-05-10T03:03:44;15.50;99.90
36384;DHT22;22418;51.210;6.976;2023-05-10T03:06:15;15.50;99.90
36384;DHT22;22418;51.210;6.976;2023-05-10T03:08:46;15.50;99.90
36384;DHT22;22418;51.210;6.976;2023-05-10T03:17:04;15.50;99.90
36384;DHT22;22418;51.210;6.976;2023-05-10T03:19:46;15.50;99.90
36384;DHT22;22418;51.210;6.976;2023-05-10T03:22:21;15.50;99.90
36384;DHT22;22418;51.210;6.976;2023-05-10T03:24:54;15.50;99.90
36384;DHT22;22418;51.210;6.976;2023-05-10T03:27:26;15.50;99.90
36384;DHT22;22418;51.210;6.976;2023-05-10T03:29:57;15.50;99.90
36384;DHT22;22418;51.210;6.976;2023-05-10T03:32:28;15.50;99.90
36384;DHT22;22418;51.210;6.976;2023-05-10T03:34:59;15.50;99.90
36384;DHT22;22418;51.210;6.976;2023-05-10T03:37:30;15.50;99.90
36384;DHT22;22418;51.210;6.976;2023-05-10T03:40:00;15.50;99.90
36384;DHT22;22418;51.210;6.976;2023-05-10T03:42:31;15.50;99.90
36384;DHT22;22418;51.210;6.976;2023-05-10T03:45:01;15.50;99.90
36384;DHT22;22418;51.210;6.976;2023-05-10T03:47:32;15.50;99.90
36384;DHT22;22418;51.210;6.976;2023-05-10T03:50:02;15.50;99.90
36384;DHT22;22418;51.210;6.976;2023-05-10T03:52:33;15.60;99.90
36384;DHT22;22418;51.210;6.976;2023-05-10T03:55:03;15.60;99.90
36384;DHT22;22418;51.210;6.976;2023-05-10T03:57:34;15.60;99.90
36384;DHT22;22418;51.210;6.976;2023-05-10T04:00:04;15.60;99.90
36384;DHT22;22418;51.210;6.976;2023-05-10T04:02:35;15.60;99.90
36384;DHT22;22418;51.210;6.976;2023-05-10T04:05:06;15.60;99.90
36384;DHT22;22418;51.210;6.976;2023-05-10T04:07:36;15.60;99.90
36384;DHT22;22418;51.210;6.976;2023-05-10T04:10:10;15.60;99.90
36384;DHT22;22418;51.210;6.976;2023-05-10T04:12:41;15.50;99.90
36384;DHT22;22418;51.210;6.976;2023-05-10T04:15:11;15.50;99.90
36384;DHT22;22418;51.210;6.976;2023-05-10T04:17:42;15.50;99.90
36384;DHT22;22418;51.210;6.976;2023-05-10T04:20:12;15.50;99.90
36384;DHT22;22418;51.210;6.976;2023-05-10T04:22:43;15.50;99.90
36384;DHT22;22418;51.210;6.976;2023-05-10T04:25:13;15.50;99.90
36384;DHT22;22418;51.210;6.976;2023-05-10T04:27:44;15.50;99.90
36384;DHT22;22418;51.210;6.976;2023-05-10T04:30:14;15.50;99.90
36384;DHT22;22418;51.210;6.976;2023-05-10T04:32:45;15.50;99.90
36384;DHT22;22418;51.210;6.976;2023-05-10T04:35:15;15.50;99.90
36384;DHT22;22418;51.210;6.976;2023-05-10T04:37:46;15.50;99.90
36384;DHT22;22418;51.210;6.976;2023-05-10T04:40:17;15.50;99.90
36384;DHT22;22418;51.210;6.976;2023-05-10T04:42:47;15.60;99.90
36384;DHT22;22418;51.210;6.976;2023-05-10T04:45:18;15.60;99.90
36384;DHT22;22418;51.210;6.976;2023-05-10T04:47:48;15.50;99.90
36384;DHT22;22418;51.210;6.976;2023-05-10T04:50:18;15.60;99.90
36384;DHT22;22418;51.210;6.976;2023-05-10T04:52:49;15.60;99.90
36384;DHT22;22418;51.210;6.976;2023-05-10T04:55:19;15.60;99.90
36384;DHT22;22418;51.210;6.976;2023-05-10T04:57:50;15.60;99.90
36384;DHT22;22418;51.210;6.976;2023-05-10T05:00:20;15.60;99.90
36384;DHT22;22418;51.210;6.976;2023-05-10T05:02:51;15.60;99.90
36384;DHT22;22418;51.210;6.976;2023-05-10T05:05:21;15.60;99.90
36384;DHT22;22418;51.210;6.976;2023-05-10T05:07:52;15.60;99.90
36384;DHT22;22418;51.210;6.976;2023-05-10T05:10:22;15.50;99.90
36384;DHT22;22418;51.210;6.976;2023-05-10T05:12:53;15.60;99.90
36384;DHT22;22418;51.210;6.976;2023-05-10T05:15:23;15.60;99.90
36384;DHT22;22418;51.210;6.976;2023-05-10T05:17:54;15.60;99.90
36384;DHT22;22418;51.210;6.976;2023-05-10T05:20:24;15.60;99.90
36384;DHT22;22418;51.210;6.976;2023-05-10T05:22:55;15.60;99.90
36384;DHT22;22418;51.210;6.976;2023-05-10T05:25:25;15.70;99.90
36384;DHT22;22418;51.210;6.976;2023-05-10T05:27:55;15.70;99.90
36384;DHT22;22418;51.210;6.976;2023-05-10T05:30:26;15.80;99.90
36384;DHT22;22418;51.210;6.976;2023-05-10T05:32:57;15.80;99.90
36384;DHT22;22418;51.210;6.976;2023-05-10T05:35:27;15.80;99.90
36384;DHT22;22418;51.210;6.976;2023-05-10T05:37:58;15.80;99.90
36384;DHT22;22418;51.210;6.976;2023-05-10T05:40:28;15.80;99.90
36384;DHT22;22418;51.210;6.976;2023-05-10T05:42:59;15.90;99.90
36384;DHT22;22418;51.210;6.976;2023-05-10T05:45:29;15.90;99.90
36384;DHT22;22418;51.210;6.976;2023-05-10T05:47:59;15.80;99.90
36384;DHT22;22418;51.210;6.976;2023-05-10T05:50:30;15.80;99.90
36384;DHT22;22418;51.210;6.976;2023-05-10T05:53:00;15.90;99.90
36384;DHT22;22418;51.210;6.976;2023-05-10T05:55:31;15.80;99.90
36384;DHT22;22418;51.210;6.976;2023-05-10T05:58:01;15.80;99.90
36384;DHT22;22418;51.210;6.976;2023-05-10T06:00:32;15.80;99.90
36384;DHT22;22418;51.210;6.976;2023-05-10T06:03:02;15.80;99.90
36384;DHT22;22418;51.210;6.976;2023-05-10T06:05:33;15.80;99.90
36384;DHT22;22418;51.210;6.976;2023-05-10T06:08:04;15.80;99.90
36384;DHT22;22418;51.210;6.976;2023-05-10T06:10:34;15.80;99.90
36384;DHT22;22418;51.210;6.976;2023-05-10T06:13:05;15.80;99.90
36384;DHT22;22418;51.210;6.976;2023-05-10T06:15:35;15.80;99.90
36384;DHT22;22418;51.210;6.976;2023-05-10T06:18:06;15.80;99.90
36384;DHT22;22418;51.210;6.976;2023-05-10T06:20:36;15.70;99.90
36384;DHT22;22418;51.210;6.976;2023-05-10T06:23:07;15.70;99.90
36384;DHT22;22418;51.210;6.976;2023-05-10T06:25:37;15.70;99.90
36384;DHT22;22418;51.210;6.976;2023-05-10T06:28:08;15.60;99.90
36384;DHT22;22418;51.210;6.976;2023-05-10T06:30:38;15.70;99.90
36384;DHT22;22418;51.210;6.976;2023-05-10T06:33:09;15.70;99.90
36384;DHT22;22418;51.210;6.976;2023-05-10T06:35:39;15.60;99.90
36384;DHT22;22418;51.210;6.976;2023-05-10T06:38:09;15.70;99.90
36384;DHT22;22418;51.210;6.976;2023-05-10T06:40:41;15.70;99.90
36384;DHT22;22418;51.210;6.976;2023-05-10T06:43:11;15.80;99.90
36384;DHT22;22418;51.210;6.976;2023-05-10T06:45:42;15.70;99.90
36384;DHT22;22418;51.210;6.976;2023-05-10T06:48:12;15.70;99.90
36384;DHT22;22418;51.210;6.976;2023-05-10T06:50:43;15.80;99.90
36384;DHT22;22418;51.210;6.976;2023-05-10T06:53:14;15.70;99.90
36384;DHT22;22418;51.210;6.976;2023-05-10T06:55:45;15.70;99.90
36384;DHT22;22418;51.210;6.976;2023-05-10T06:58:16;15.80;99.90
36384;DHT22;22418;51.210;6.976;2023-05-10T07:00:47;15.80;99.90
36384;DHT22;22418;51.210;6.976;2023-05-10T07:03:17;15.90;99.90
36384;DHT22;22418;51.210;6.976;2023-05-10T07:05:48;16.00;99.90
36384;DHT22;22418;51.210;6.976;2023-05-10T07:08:18;16.00;99.90
36384;DHT22;22418;51.210;6.976;2023-05-10T07:10:48;15.90;99.90
36384;DHT22;22418;51.210;6.976;2023-05-10T07:13:19;15.90;99.90
36384;DHT22;22418;51.210;6.976;2023-05-10T07:15:50;15.80;99.90
36384;DHT22;22418;51.210;6.976;2023-05-10T07:18:20;15.70;99.90
36384;DHT22;22418;51.210;6.976;2023-05-10T07:20:51;15.70;99.90
36384;DHT22;22418;51.210;6.976;2023-05-10T07:23:21;15.60;99.90
36384;DHT22;22418;51.210;6.976;2023-05-10T07:25:52;15.70;99.90
36384;DHT22;22418;51.210;6.976;2023-05-10T07:28:22;15.80;99.90
36384;DHT22;22418;51.210;6.976;2023-05-10T07:30:53;15.90;99.90
36384;DHT22;22418;51.210;6.976;2023-05-10T07:33:23;16.10;99.90
36384;DHT22;22418;51.210;6.976;2023-05-10T07:35:54;16.20;99.90
36384;DHT22;22418;51.210;6.976;2023-05-10T07:38:25;16.30;99.90
36384;DHT22;22418;51.210;6.976;2023-05-10T07:40:55;16.40;99.90
36384;DHT22;22418;51.210;6.976;2023-05-10T07:43:25;16.50;99.90
36384;DHT22;22418;51.210;6.976;2023-05-10T07:45:56;16.50;99.90
36384;DHT22;22418;51.210;6.976;2023-05-10T07:48:27;16.50;99.90
36384;DHT22;22418;51.210;6.976;2023-05-10T07:50:58;16.40;99.90
36384;DHT22;22418;51.210;6.976;2023-05-10T07:53:28;16.30;99.90
36384;DHT22;22418;51.210;6.976;2023-05-10T07:55:59;16.40;99.90
36384;DHT22;22418;51.210;6.976;2023-05-10T07:58:29;16.50;99.90
36384;DHT22;22418;51.210;6.976;2023-05-10T08:01:00;16.60;99.90
36384;DHT22;22418;51.210;6.976;2023-05-10T08:03:30;16.60;99.90
36384;DHT22;22418;51.210;6.976;2023-05-10T08:06:01;16.70;99.90
36384;DHT22;22418;51.210;6.976;2023-05-10T08:08:31;16.80;99.90
36384;DHT22;22418;51.210;6.976;2023-05-10T08:11:02;16.70;99.90
36384;DHT22;22418;51.210;6.976;2023-05-10T08:13:32;16.70;99.90
36384;DHT22;22418;51.210;6.976;2023-05-10T08:16:03;16.80;99.90
36384;DHT22;22418;51.210;6.976;2023-05-10T08:18:33;16.90;99.90
36384;DHT22;22418;51.210;6.976;2023-05-10T08:21:04;17.00;99.90
36384;DHT22;22418;51.210;6.976;2023-05-10T08:23:34;17.00;99.90
36384;DHT22;22418;51.210;6.976;2023-05-10T08:26:05;17.00;99.90
36384;DHT22;22418;51.210;6.976;2023-05-10T08:28:35;17.00;99.90
36384;DHT22;22418;51.210;6.976;2023-05-10T08:31:06;17.00;99.90
36384;DHT22;22418;51.210;6.976;2023-05-10T08:33:36;16.90;99.90
36384;DHT22;22418;51.210;6.976;2023-05-10T08:36:07;16.90;99.90
36384;DHT22;22418;51.210;6.976;2023-05-10T08:38:37;17.00;99.90
36384;DHT22;22418;51.210;6.976;2023-05-10T08:41:08;17.10;99.90
36384;DHT22;22418;51.210;6.976;2023-05-10T08:43:39;17.30;99.90
36384;DHT22;22418;51.210;6.976;2023-05-10T08:46:12;17.40;99.90
36384;DHT22;22418;51.210;6.976;2023-05-10T08:48:46;17.50;99.90
36384;DHT22;22418;51.210;6.976;2023-05-10T08:51:22;17.60;99.90
36384;DHT22;22418;51.210;6.976;2023-05-10T08:53:52;17.50;99.90
36384;DHT22;22418;51.210;6.976;2023-05-10T08:56:23;17.50;99.90
36384;DHT22;22418;51.210;6.976;2023-05-10T08:58:54;17.50;99.90
36384;DHT22;22418;51.210;6.976;2023-05-10T09:01:25;17.40;99.90
36384;DHT22;22418;51.210;6.976;2023-05-10T09:03:56;17.40;99.90
36384;DHT22;22418;51.210;6.976;2023-05-10T09:06:27;17.40;99.90
36384;DHT22;22418;51.210;6.976;2023-05-10T09:08:58;17.50;99.90
36384;DHT22;22418;51.210;6.976;2023-05-10T09:11:30;17.50;99.90
36384;DHT22;22418;51.210;6.976;2023-05-10T09:14:01;17.60;99.90
36384;DHT22;22418;51.210;6.976;2023-05-10T09:16:32;17.80;99.90
36384;DHT22;22418;51.210;6.976;2023-05-10T09:19:03;18.10;99.90
36384;DHT22;22418;51.210;6.976;2023-05-10T09:21:35;18.40;99.90
36384;DHT22;22418;51.210;6.976;2023-05-10T09:24:07;18.60;99.90
36384;DHT22;22418;51.210;6.976;2023-05-10T09:26:47;18.70;99.90
36384;DHT22;22418;51.210;6.976;2023-05-10T09:29:21;18.50;99.90
36384;DHT22;22418;51.210;6.976;2023-05-10T09:31:52;18.30;99.90
36384;DHT22;22418;51.210;6.976;2023-05-10T09:34:28;18.00;99.90
36384;DHT22;22418;51.210;6.976;2023-05-10T09:37:00;17.80;99.90
36384;DHT22;22418;51.210;6.976;2023-05-10T09:39:37;17.60;99.90
36384;DHT22;22418;51.210;6.976;2023-05-10T09:42:08;17.50;99.90
36384;DHT22;22418;51.210;6.976;2023-05-10T09:44:39;17.40;99.90
36384;DHT22;22418;51.210;6.976;2023-05-10T09:47:11;17.50;99.90
36384;DHT22;22418;51.210;6.976;2023-05-10T09:49:50;17.50;99.90
36384;DHT22;22418;51.210;6.976;2023-05-10T09:52:21;17.50;99.90
36384;DHT22;22418;51.210;6.976;2023-05-10T09:54:52;17.50;99.90
36384;DHT22;22418;51.210;6.976;2023-05-10T09:57:23;17.40;99.90
36384;DHT22;22418;51.210;6.976;2023-05-10T09:59:54;17.30;99.90
36384;DHT22;22418;51.210;6.976;2023-05-10T10:02:27;17.20;99.90
36384;DHT22;22418;51.210;6.976;2023-05-10T10:05:00;17.10;99.90
36384;DHT22;22418;51.210;6.976;2023-05-10T10:07:31;17.10;99.90
36384;DHT22;22418;51.210;6.976;2023-05-10T10:10:02;17.00;99.90
36384;DHT22;22418;51.210;6.976;2023-05-10T10:12:33;17.00;99.90
36384;DHT22;22418;51.210;6.976;2023-05-10T10:15:04;17.00;99.90
36384;DHT22;22418;51.210;6.976;2023-05-10T10:17:35;17.00;99.90
36384;DHT22;22418;51.210;6.976;2023-05-10T10:20:06;17.10;99.90
36384;DHT22;22418;51.210;6.976;2023-05-10T10:22:37;17.20;99.90
36384;DHT22;22418;51.210;6.976;2023-05-10T10:25:08;17.50;99.90
36384;DHT22;22418;51.210;6.976;2023-05-10T10:27:43;17.70;99.90
36384;DHT22;22418;51.210;6.976;2023-05-10T10:33:13;17.80;99.90
36384;DHT22;22418;51.210;6.976;2023-05-10T10:35:49;17.70;99.90
36384;DHT22;22418;51.210;6.976;2023-05-10T10:38:20;17.60;99.90
36384;DHT22;22418;51.210;6.976;2023-05-10T10:41:06;17.40;99.90
36384;DHT22;22418;51.210;6.976;2023-05-10T10:43:38;17.30;99.90
36384;DHT22;22418;51.210;6.976;2023-05-10T10:46:15;17.30;99.90
36384;DHT22;22418;51.210;6.976;2023-05-10T10:48:47;17.20;99.90
36384;DHT22;22418;51.210;6.976;2023-05-10T10:51:18;17.30;99.90
36384;DHT22;22418;51.210;6.976;2023-05-10T10:53:49;17.40;99.90
36384;DHT22;22418;51.210;6.976;2023-05-10T10:56:19;17.60;99.90
36384;DHT22;22418;51.210;6.976;2023-05-10T10:58:56;17.90;99.90
36384;DHT22;22418;51.210;6.976;2023-05-10T11:01:33;18.10;99.90
36384;DHT22;22418;51.210;6.976;2023-05-10T11:06:35;18.50;99.90
36384;DHT22;22418;51.210;6.976;2023-05-10T11:09:12;18.50;99.90
36384;DHT22;22418;51.210;6.976;2023-05-10T11:11:50;18.60;99.90
36384;DHT22;22418;51.210;6.976;2023-05-10T11:14:21;18.70;99.90
36384;DHT22;22418;51.210;6.976;2023-05-10T11:16:52;18.90;99.90
36384;DHT22;22418;51.210;6.976;2023-05-10T11:19:23;19.00;99.90
36384;DHT22;22418;51.210;6.976;2023-05-10T11:24:33;19.00;99.90
36384;DHT22;22418;51.210;6.976;2023-05-10T11:27:06;18.90;99.90
36384;DHT22;22418;51.210;6.976;2023-05-10T11:29:36;18.90;99.90
36384;DHT22;22418;51.210;6.976;2023-05-10T11:32:06;18.80;99.90
36384;DHT22;22418;51.210;6.976;2023-05-10T11:34:38;18.90;99.90
36384;DHT22;22418;51.210;6.976;2023-05-10T11:37:08;18.80;99.90
36384;DHT22;22418;51.210;6.976;2023-05-10T11:39:44;18.50;99.90
36384;DHT22;22418;51.210;6.976;2023-05-10T11:42:15;18.40;99.90
36384;DHT22;22418;51.210;6.976;2023-05-10T11:44:46;18.20;99.90
36384;DHT22;22418;51.210;6.976;2023-05-10T11:47:17;18.00;99.90
36384;DHT22;22418;51.210;6.976;2023-05-10T11:49:47;18.00;99.90
36384;DHT22;22418;51.210;6.976;2023-05-10T11:52:18;17.90;99.90
36384;DHT22;22418;51.210;6.976;2023-05-10T11:54:54;17.90;99.90
36384;DHT22;22418;51.210;6.976;2023-05-10T11:57:25;17.90;99.90
36384;DHT22;22418;51.210;6.976;2023-05-10T11:59:57;18.00;99.90
36384;DHT22;22418;51.210;6.976;2023-05-10T12:02:28;18.20;99.90
36384;DHT22;22418;51.210;6.976;2023-05-10T12:04:58;18.30;99.90
36384;DHT22;22418;51.210;6.976;2023-05-10T12:07:29;18.50;99.90
36384;DHT22;22418;51.210;6.976;2023-05-10T12:10:07;18.50;99.90
36384;DHT22;22418;51.210;6.976;2023-05-10T12:12:41;18.60;99.90
36384;DHT22;22418;51.210;6.976;2023-05-10T12:15:16;18.80;99.90
36384;DHT22;22418;51.210;6.976;2023-05-10T12:17:48;19.10;99.90
36384;DHT22;22418;51.210;6.976;2023-05-10T12:20:22;19.20;99.90
36384;DHT22;22418;51.210;6.976;2023-05-10T12:22:54;19.30;99.90
36384;DHT22;22418;51.210;6.976;2023-05-10T12:25:29;19.40;99.90
36384;DHT22;22418;51.210;6.976;2023-05-10T12:28:00;19.30;99.90
36384;DHT22;22418;51.210;6.976;2023-05-10T12:30:33;19.30;99.90
36384;DHT22;22418;51.210;6.976;2023-05-10T12:35:44;19.40;99.90
36384;DHT22;22418;51.210;6.976;2023-05-10T12:38:34;19.40;99.90
36384;DHT22;22418;51.210;6.976;2023-05-10T12:41:06;19.40;99.90
36384;DHT22;22418;51.210;6.976;2023-05-10T12:43:37;19.20;99.90
36384;DHT22;22418;51.210;6.976;2023-05-10T12:46:10;19.10;99.90
36384;DHT22;22418;51.210;6.976;2023-05-10T12:48:41;18.90;99.90
36384;DHT22;22418;51.210;6.976;2023-05-10T12:51:12;18.80;99.90
36384;DHT22;22418;51.210;6.976;2023-05-10T12:53:45;18.70;99.90
36384;DHT22;22418;51.210;6.976;2023-05-10T12:56:18;18.60;99.90
36384;DHT22;22418;51.210;6.976;2023-05-10T12:58:48;18.50;99.90
36384;DHT22;22418;51.210;6.976;2023-05-10T13:01:19;18.30;99.90
36384;DHT22;22418;51.210;6.976;2023-05-10T13:03:49;18.20;99.90
36384;DHT22;22418;51.210;6.976;2023-05-10T13:06:20;18.10;99.90
36384;DHT22;22418;51.210;6.976;2023-05-10T13:08:51;18.10;99.90
36384;DHT22;22418;51.210;6.976;2023-05-10T13:11:22;17.90;99.90
36384;DHT22;22418;51.210;6.976;2023-05-10T13:13:52;17.90;99.90
36384;DHT22;22418;51.210;6.976;2023-05-10T13:16:22;17.90;99.90
36384;DHT22;22418;51.210;6.976;2023-05-10T13:18:53;17.90;99.90
36384;DHT22;22418;51.210;6.976;2023-05-10T13:21:23;17.80;99.90
36384;DHT22;22418;51.210;6.976;2023-05-10T13:23:55;17.70;99.90
36384;DHT22;22418;51.210;6.976;2023-05-10T13:26:25;17.70;99.90
36384;DHT22;22418;51.210;6.976;2023-05-10T13:28:56;17.50;99.90
36384;DHT22;22418;51.210;6.976;2023-05-10T13:31:26;17.50;99.90
36384;DHT22;22418;51.210;6.976;2023-05-10T13:33:57;17.40;99.90
36384;DHT22;22418;51.210;6.976;2023-05-10T13:36:28;17.40;99.90
36384;DHT22;22418;51.210;6.976;2023-05-10T13:38:58;17.50;99.90
36384;DHT22;22418;51.210;6.976;2023-05-10T13:41:28;17.50;99.90
36384;DHT22;22418;51.210;6.976;2023-05-10T13:43:59;17.70;99.90
36384;DHT22;22418;51.210;6.976;2023-05-10T13:46:32;17.80;99.90
36384;DHT22;22418;51.210;6.976;2023-05-10T13:49:03;17.80;99.90
36384;DHT22;22418;51.210;6.976;2023-05-10T13:51:34;17.80;99.90
36384;DHT22;22418;51.210;6.976;2023-05-10T13:54:04;17.80;99.90
36384;DHT22;22418;51.210;6.976;2023-05-10T13:56:35;17.90;99.90
36384;DHT22;22418;51.210;6.976;2023-05-10T13:59:05;18.00;99.90
36384;DHT22;22418;51.210;6.976;2023-05-10T14:01:36;18.00;99.90
36384;DHT22;22418;51.210;6.976;2023-05-10T14:04:06;18.00;99.90
36384;DHT22;22418;51.210;6.976;2023-05-10T14:06:40;18.00;99.90
36384;DHT22;22418;51.210;6.976;2023-05-10T14:09:10;17.90;99.90
36384;DHT22;22418;51.210;6.976;2023-05-10T14:11:41;18.10;99.90
36384;DHT22;22418;51.210;6.976;2023-05-10T14:14:13;18.00;99.90
36384;DHT22;22418;51.210;6.976;2023-05-10T14:16:44;18.10;99.90
36384;DHT22;22418;51.210;6.976;2023-05-10T14:19:14;18.40;99.90
36384;DHT22;22418;51.210;6.976;2023-05-10T14:21:45;18.40;99.90
36384;DHT22;22418;51.210;6.976;2023-05-10T14:24:15;18.40;99.90
36384;DHT22;22418;51.210;6.976;2023-05-10T14:26:46;18.40;99.90
36384;DHT22;22418;51.210;6.976;2023-05-10T14:29:16;18.40;99.90
36384;DHT22;22418;51.210;6.976;2023-05-10T14:31:47;18.30;99.90
36384;DHT22;22418;51.210;6.976;2023-05-10T14:34:18;18.30;99.90
36384;DHT22;22418;51.210;6.976;2023-05-10T14:36:48;18.20;99.90
36384;DHT22;22418;51.210;6.976;2023-05-10T14:39:19;18.20;99.90
36384;DHT22;22418;51.210;6.976;2023-05-10T14:41:50;18.10;99.90
36384;DHT22;22418;51.210;6.976;2023-05-10T14:44:22;18.10;99.90
36384;DHT22;22418;51.210;6.976;2023-05-10T14:46:53;18.00;99.90
36384;DHT22;22418;51.210;6.976;2023-05-10T14:49:24;17.90;99.90
36384;DHT22;22418;51.210;6.976;2023-05-10T14:51:56;17.80;99.90
36384;DHT22;22418;51.210;6.976;2023-05-10T14:54:26;17.80;99.90
36384;DHT22;22418;51.210;6.976;2023-05-10T14:56:57;17.80;99.90
36384;DHT22;22418;51.210;6.976;2023-05-10T14:59:28;17.90;99.90
36384;DHT22;22418;51.210;6.976;2023-05-10T15:01:59;17.90;99.90
36384;DHT22;22418;51.210;6.976;2023-05-10T15:04:29;18.00;99.90
36384;DHT22;22418;51.210;6.976;2023-05-10T15:07:00;17.90;99.90
36384;DHT22;22418;51.210;6.976;2023-05-10T15:09:30;18.00;99.90
36384;DHT22;22418;51.210;6.976;2023-05-10T15:12:01;18.00;99.90
36384;DHT22;22418;51.210;6.976;2023-05-10T15:14:31;18.00;99.90
36384;DHT22;22418;51.210;6.976;2023-05-10T15:17:03;18.00;99.90
36384;DHT22;22418;51.210;6.976;2023-05-10T15:19:34;18.10;99.90
36384;DHT22;22418;51.210;6.976;2023-05-10T15:22:04;18.20;99.90
36384;DHT22;22418;51.210;6.976;2023-05-10T15:24:35;18.00;99.90
36384;DHT22;22418;51.210;6.976;2023-05-10T15:27:05;18.00;99.90
36384;DHT22;22418;51.210;6.976;2023-05-10T15:29:36;18.00;99.90
36384;DHT22;22418;51.210;6.976;2023-05-10T15:32:06;18.00;99.90
36384;DHT22;22418;51.210;6.976;2023-05-10T15:34:37;18.00;99.90
36384;DHT22;22418;51.210;6.976;2023-05-10T15:37:07;18.10;99.90
36384;DHT22;22418;51.210;6.976;2023-05-10T15:39:38;18.10;99.90
36384;DHT22;22418;51.210;6.976;2023-05-10T15:42:08;18.10;99.90
36384;DHT22;22418;51.210;6.976;2023-05-10T15:44:39;18.10;99.90
36384;DHT22;22418;51.210;6.976;2023-05-10T15:47:09;18.10;99.90
36384;DHT22;22418;51.210;6.976;2023-05-10T15:49:40;18.10;99.90
36384;DHT22;22418;51.210;6.976;2023-05-10T15:52:10;18.20;99.90
36384;DHT22;22418;51.210;6.976;2023-05-10T15:54:41;18.30;99.90
36384;DHT22;22418;51.210;6.976;2023-05-10T15:57:14;18.40;99.90
36384;DHT22;22418;51.210;6.976;2023-05-10T15:59:44;18.40;99.90
36384;DHT22;22418;51.210;6.976;2023-05-10T16:02:15;18.50;99.90
36384;DHT22;22418;51.210;6.976;2023-05-10T16:04:46;18.50;99.90
36384;DHT22;22418;51.210;6.976;2023-05-10T16:07:17;18.60;99.90
36384;DHT22;22418;51.210;6.976;2023-05-10T16:09:47;18.60;99.90
36384;DHT22;22418;51.210;6.976;2023-05-10T16:12:18;18.60;99.90
36384;DHT22;22418;51.210;6.976;2023-05-10T16:14:49;18.60;99.90
36384;DHT22;22418;51.210;6.976;2023-05-10T16:17:19;18.50;99.90
36384;DHT22;22418;51.210;6.976;2023-05-10T16:19:50;18.50;99.90
36384;DHT22;22418;51.210;6.976;2023-05-10T16:22:20;18.30;99.90